Time;durP1;ratioP1;P1;durP2;ratioP2;P2;SDS_P1;SDS_P2;PMS_P1;PMS_P2;Temp;Humidity;BMP_temperature;BMP_pressure;BME280_temperature;BME280_humidity;BME280_pressure;Samples;Min_cycle;Max_cycle;Signal;HPM_P1;HPM_P2
2022/03/15 00:00:28;;;;;;;1.88;0.90;;;;;;;;;;5067373;28;20107;-73
2022/03/15 00:02:56;;;;;;;3.88;0.82;;;;;;;;;;5069329;28;20024;-74
2022/03/15 00:05:24;;;;;;;3.92;0.90;;;;;;;;;;5072042;28;20024;-73
2022/03/15 00:07:51;;;;;;;5.40;1.13;;;;;;;;;;5063814;28;20095;-74
2022/03/15 00:10:18;;;;;;;2.28;0.90;;;;;;;;;;5052083;28;20025;-74
2022/03/15 00:12:45;;;;;;;7.97;0.98;;;;;;;;;;5052298;28;20057;-73
2022/03/15 00:15:12;;;;;;;6.60;1.08;;;;;;;;;;5047837;28;20507;-74
2022/03/15 00:17:40;;;;;;;6.90;1.33;;;;;;;;;;5046944;28;20029;-74
2022/03/15 00:20:07;;;;;;;4.07;1.02;;;;;;;;;;5046857;28;20028;-73
2022/03/15 00:22:37;;;;;;;3.85;1.00;;;;;;;;;;5051977;28;20017;-75
2022/03/15 00:25:08;;;;;;;3.65;1.20;;;;;;;;;;5061600;28;20029;-73
2022/03/15 00:27:35;;;;;;;5.43;1.00;;;;;;;;;;5052180;28;20108;-73
2022/03/15 00:30:03;;;;;;;7.32;0.80;;;;;;;;;;5055002;28;20104;-74
2022/03/15 00:32:30;;;;;;;3.28;1.10;;;;;;;;;;5056324;28;20040;-73
2022/03/15 00:34:56;;;;;;;5.38;1.00;;;;;;;;;;5055983;28;20025;-73
2022/03/15 00:37:23;;;;;;;2.30;1.02;;;;;;;;;;5051755;28;20032;-74
2022/03/15 00:39:51;;;;;;;4.35;1.08;;;;;;;;;;5050644;28;20024;-74
2022/03/15 00:42:18;;;;;;;3.63;0.77;;;;;;;;;;5050903;28;20035;-73
2022/03/15 00:44:45;;;;;;;3.20;0.90;;;;;;;;;;5050774;28;20032;-74
2022/03/15 00:47:11;;;;;;;6.40;1.30;;;;;;;;;;5053890;28;20017;-74
2022/03/15 00:49:38;;;;;;;3.90;1.08;;;;;;;;;;5055905;28;20518;-72
2022/03/15 00:52:05;;;;;;;3.73;1.53;;;;;;;;;;5056137;28;20029;-73
2022/03/15 00:54:31;;;;;;;2.43;1.23;;;;;;;;;;5075438;28;20382;-73
2022/03/15 00:56:58;;;;;;;5.13;1.30;;;;;;;;;;5075741;28;20021;-73
2022/03/15 00:59:25;;;;;;;6.87;1.50;;;;;;;;;;5072357;28;20028;-73
2022/03/15 01:01:52;;;;;;;5.90;1.60;;;;;;;;;;5070440;28;20024;-73
2022/03/15 01:04:19;;;;;;;8.40;2.33;;;;;;;;;;5070340;28;20020;-73
2022/03/15 01:06:46;;;;;;;5.67;2.03;;;;;;;;;;5070249;28;20032;-73
2022/03/15 01:09:12;;;;;;;5.17;1.93;;;;;;;;;;5072778;28;20016;-73
2022/03/15 01:11:39;;;;;;;18.07;3.77;;;;;;;;;;5075010;28;20024;-73
2022/03/15 01:14:06;;;;;;;4.80;2.40;;;;;;;;;;5075222;28;20417;-72
2022/03/15 01:16:34;;;;;;;6.57;3.07;;;;;;;;;;5075051;28;20539;-73
2022/03/15 01:19:00;;;;;;;12.43;2.30;;;;;;;;;;5075428;28;20422;-73
2022/03/15 01:21:28;;;;;;;11.07;2.30;;;;;;;;;;5072548;28;20036;-72
2022/03/15 01:23:54;;;;;;;8.93;2.80;;;;;;;;;;5056605;28;20033;-73
2022/03/15 01:26:21;;;;;;;6.90;2.50;;;;;;;;;;5030580;28;20539;-74
2022/03/15 01:28:48;;;;;;;10.93;2.50;;;;;;;;;;5029616;28;20419;-72
2022/03/15 01:31:15;;;;;;;8.83;2.53;;;;;;;;;;5031370;28;20030;-73
2022/03/15 01:33:41;;;;;;;11.53;3.70;;;;;;;;;;5042082;28;20036;-73
2022/03/15 01:36:08;;;;;;;5.27;2.30;;;;;;;;;;5054838;28;20369;-73
2022/03/15 01:38:35;;;;;;;9.40;2.47;;;;;;;;;;5055044;28;20048;-73
2022/03/15 01:41:02;;;;;;;6.80;2.57;;;;;;;;;;5054043;28;20476;-72
2022/03/15 01:43:29;;;;;;;11.33;2.40;;;;;;;;;;5052589;28;20519;-74
2022/03/15 01:45:56;;;;;;;7.07;2.30;;;;;;;;;;5049251;28;20151;-73
2022/03/15 01:48:23;;;;;;;11.63;2.20;;;;;;;;;;5049578;28;20028;-74
2022/03/15 01:50:50;;;;;;;6.40;2.40;;;;;;;;;;5049448;28;20430;-74
2022/03/15 01:53:17;;;;;;;11.03;2.97;;;;;;;;;;5050607;28;20086;-73
2022/03/15 01:55:45;;;;;;;8.43;2.73;;;;;;;;;;5054747;28;20052;-73
2022/03/15 01:58:11;;;;;;;10.17;2.00;;;;;;;;;;5054512;28;20434;-73
2022/03/15 02:00:38;;;;;;;4.63;2.20;;;;;;;;;;5054537;28;20480;-72
2022/03/15 02:03:05;;;;;;;5.33;2.70;;;;;;;;;;5053948;28;20027;-73
2022/03/15 02:05:32;;;;;;;8.47;2.60;;;;;;;;;;5073316;28;20062;-73
2022/03/15 02:08:07;;;;;;;5.33;2.40;;;;;;;;;;5052973;28;20025;-73
2022/03/15 02:10:34;;;;;;;4.13;2.27;;;;;;;;;;5049325;28;20055;-72
2022/03/15 02:13:01;;;;;;;4.80;2.10;;;;;;;;;;5049333;28;20025;-72
2022/03/15 02:15:28;;;;;;;5.90;2.30;;;;;;;;;;5058070;28;20024;-72
2022/03/15 02:17:55;;;;;;;6.97;2.70;;;;;;;;;;5073852;28;20428;-72
2022/03/15 02:20:22;;;;;;;7.80;2.40;;;;;;;;;;5053505;28;20472;-72
2022/03/15 02:22:49;;;;;;;6.30;3.03;;;;;;;;;;5068679;28;20032;-70
2022/03/15 02:25:16;;;;;;;13.30;2.87;;;;;;;;;;5074090;28;20402;-71
2022/03/15 02:27:43;;;;;;;4.47;2.43;;;;;;;;;;5072608;28;20451;-72
2022/03/15 02:30:10;;;;;;;4.27;2.73;;;;;;;;;;5068686;28;20021;-73
2022/03/15 02:32:38;;;;;;;4.83;2.53;;;;;;;;;;5054337;28;20036;-73
2022/03/15 02:35:06;;;;;;;5.77;2.60;;;;;;;;;;5048413;28;20029;-73
2022/03/15 02:37:33;;;;;;;5.67;2.47;;;;;;;;;;5048987;28;20100;-72
2022/03/15 02:40:00;;;;;;;8.93;3.07;;;;;;;;;;5053855;28;20021;-72
2022/03/15 02:42:29;;;;;;;5.83;2.83;;;;;;;;;;5053725;28;20021;-72
2022/03/15 02:44:56;;;;;;;6.63;3.10;;;;;;;;;;5053877;28;20021;-72
2022/03/15 02:47:23;;;;;;;5.37;2.97;;;;;;;;;;5053730;28;20021;-72
2022/03/15 02:49:50;;;;;;;6.50;2.43;;;;;;;;;;5052462;28;20025;-72
2022/03/15 02:52:17;;;;;;;4.73;2.17;;;;;;;;;;5057514;28;20158;-72
2022/03/15 02:54:44;;;;;;;4.57;1.97;;;;;;;;;;5068563;28;20439;-72
2022/03/15 02:57:12;;;;;;;4.73;1.80;;;;;;;;;;5051114;28;20032;-73
2022/03/15 02:59:40;;;;;;;7.97;3.43;;;;;;;;;;5048569;28;20056;-72
2022/03/15 03:02:08;;;;;;;5.83;2.83;;;;;;;;;;5053422;28;20051;-72
2022/03/15 03:04:35;;;;;;;4.63;2.93;;;;;;;;;;5053504;28;20036;-72
2022/03/15 03:07:02;;;;;;;9.37;3.70;;;;;;;;;;5052921;28;20108;-73
2022/03/15 03:09:30;;;;;;;14.60;4.90;;;;;;;;;;5053369;28;20025;-72
2022/03/15 03:12:01;;;;;;;8.70;2.50;;;;;;;;;;5053076;28;20033;-72
2022/03/15 03:14:29;;;;;;;6.53;2.33;;;;;;;;;;5048088;28;20017;-72
2022/03/15 03:16:56;;;;;;;4.67;1.80;;;;;;;;;;5048404;28;20025;-72
2022/03/15 03:19:23;;;;;;;8.33;1.97;;;;;;;;;;5048067;28;20060;-72
2022/03/15 03:21:50;;;;;;;10.37;2.20;;;;;;;;;;5047618;28;20028;-72
2022/03/15 03:24:24;;;;;;;4.83;2.20;;;;;;;;;;5052941;28;20476;-72
2022/03/15 03:26:51;;;;;;;5.43;2.00;;;;;;;;;;5053044;28;20104;-73
2022/03/15 03:29:18;;;;;;;4.30;1.47;;;;;;;;;;5052888;28;20025;-72
2022/03/15 03:31:46;;;;;;;12.03;1.47;;;;;;;;;;5052576;28;20088;-73
2022/03/15 03:34:14;;;;;;;5.63;1.90;;;;;;;;;;5052535;28;20020;-72
2022/03/15 03:36:41;;;;;;;6.63;2.17;;;;;;;;;;5047610;28;20064;-72
2022/03/15 03:39:08;;;;;;;5.33;1.93;;;;;;;;;;5047979;28;20053;-72
2022/03/15 03:41:37;;;;;;;6.03;1.80;;;;;;;;;;5047927;28;20087;-73
2022/03/15 03:44:04;;;;;;;8.00;2.27;;;;;;;;;;5047750;28;20530;-72
2022/03/15 03:46:31;;;;;;;10.63;1.80;;;;;;;;;;5052337;28;20035;-72
2022/03/15 03:48:58;;;;;;;4.83;2.07;;;;;;;;;;5053426;28;20056;-73
2022/03/15 03:51:26;;;;;;;4.20;2.17;;;;;;;;;;5070845;28;20067;-72
2022/03/15 03:53:53;;;;;;;11.00;2.43;;;;;;;;;;5072605;28;20021;-72
2022/03/15 03:56:22;;;;;;;6.77;1.87;;;;;;;;;;5072375;28;20439;-72
2022/03/15 03:58:49;;;;;;;5.30;2.70;;;;;;;;;;5063579;28;20116;-72
2022/03/15 04:01:16;;;;;;;4.17;2.20;;;;;;;;;;5047585;28;20079;-72
2022/03/15 04:03:43;;;;;;;5.47;2.33;;;;;;;;;;5047100;28;20384;-72
2022/03/15 04:06:11;;;;;;;6.70;4.30;;;;;;;;;;5065947;28;20036;-72
2022/03/15 04:08:38;;;;;;;11.03;3.20;;;;;;;;;;5071901;28;20020;-72
2022/03/15 04:11:05;;;;;;;8.33;4.00;;;;;;;;;;5072319;28;20032;-71
2022/03/15 04:13:33;;;;;;;5.87;3.10;;;;;;;;;;5072529;28;20032;-72
2022/03/15 04:16:00;;;;;;;6.47;1.90;;;;;;;;;;5072321;28;20078;-72
2022/03/15 04:18:27;;;;;;;5.60;2.10;;;;;;;;;;5072240;28;20036;-72
2022/03/15 04:20:54;;;;;;;3.77;1.83;;;;;;;;;;5067285;28;20490;-72
2022/03/15 04:23:21;;;;;;;3.87;2.13;;;;;;;;;;5067096;28;20108;-72
2022/03/15 04:25:51;;;;;;;3.23;1.70;;;;;;;;;;5067232;28;20024;-72
2022/03/15 04:28:19;;;;;;;3.13;1.63;;;;;;;;;;5067224;28;20044;-72
2022/03/15 04:30:47;;;;;;;3.73;1.70;;;;;;;;;;5071213;28;20025;-72
2022/03/15 04:33:14;;;;;;;4.13;1.90;;;;;;;;;;5072213;28;20021;-72
2022/03/15 04:35:41;;;;;;;3.57;1.97;;;;;;;;;;5060683;28;20527;-72
2022/03/15 04:38:08;;;;;;;3.17;1.60;;;;;;;;;;5061130;28;20041;-72
2022/03/15 04:40:35;;;;;;;1.97;1.30;;;;;;;;;;5062578;28;20032;-72
2022/03/15 04:43:03;;;;;;;6.73;1.10;;;;;;;;;;5052535;28;20471;-72
2022/03/15 04:45:30;;;;;;;4.47;1.40;;;;;;;;;;5067067;28;20024;-72
2022/03/15 04:47:57;;;;;;;2.93;1.30;;;;;;;;;;5066882;28;20071;-72
2022/03/15 04:50:24;;;;;;;3.90;1.60;;;;;;;;;;5066853;28;20058;-72
2022/03/15 04:52:51;;;;;;;3.03;1.80;;;;;;;;;;5070559;28;20017;-72
2022/03/15 04:55:18;;;;;;;3.23;1.40;;;;;;;;;;5072013;28;20024;-72
2022/03/15 04:57:44;;;;;;;3.33;1.47;;;;;;;;;;5065473;28;20025;-72
2022/03/15 05:00:11;;;;;;;4.70;1.80;;;;;;;;;;5051677;28;20507;-72
2022/03/15 05:02:44;;;;;;;5.07;1.77;;;;;;;;;;5051863;28;20025;-73
2022/03/15 05:05:12;;;;;;;5.10;1.63;;;;;;;;;;5047489;28;20056;-72
2022/03/15 05:07:39;;;;;;;3.67;1.50;;;;;;;;;;5046446;28;20032;-72
2022/03/15 05:12:52;;;;;;;3.13;1.67;;;;;;;;;;5046688;28;20151;-72
2022/03/15 05:15:19;;;;;;;3.60;1.27;;;;;;;;;;5051087;28;20024;-72
2022/03/15 05:17:46;;;;;;;6.67;1.60;;;;;;;;;;5063510;28;20052;-71
2022/03/15 05:20:14;;;;;;;6.67;1.47;;;;;;;;;;5075040;28;20024;-72
2022/03/15 05:22:43;;;;;;;3.90;1.93;;;;;;;;;;5075414;28;20032;-71
2022/03/15 05:25:11;;;;;;;4.33;1.27;;;;;;;;;;5075362;28;20028;-71
2022/03/15 05:27:38;;;;;;;2.00;1.07;;;;;;;;;;5070387;28;20024;-72
2022/03/15 05:30:05;;;;;;;3.17;1.57;;;;;;;;;;5065579;28;20103;-71
2022/03/15 05:32:32;;;;;;;6.97;1.37;;;;;;;;;;5050047;28;20169;-72
2022/03/15 05:34:59;;;;;;;4.03;1.30;;;;;;;;;;5049856;28;20435;-71
2022/03/15 05:37:26;;;;;;;2.80;1.20;;;;;;;;;;5054089;28;20029;-70
2022/03/15 05:39:52;;;;;;;4.53;1.43;;;;;;;;;;5055287;28;20080;-71
2022/03/15 05:42:19;;;;;;;5.30;1.43;;;;;;;;;;5054916;28;20083;-71
2022/03/15 05:44:47;;;;;;;3.27;1.47;;;;;;;;;;5054969;28;20025;-71
2022/03/15 05:47:14;;;;;;;3.57;1.03;;;;;;;;;;5055166;28;20053;-71
2022/03/15 05:49:41;;;;;;;2.97;1.30;;;;;;;;;;5049896;28;20078;-73
2022/03/15 05:52:08;;;;;;;2.50;1.20;;;;;;;;;;5049636;28;20396;-70
2022/03/15 05:54:35;;;;;;;4.77;1.43;;;;;;;;;;5049733;28;20049;-71
2022/03/15 05:57:02;;;;;;;1.77;1.00;;;;;;;;;;5049732;28;20075;-71
2022/03/15 05:59:29;;;;;;;3.20;1.10;;;;;;;;;;5053431;28;20029;-71
2022/03/15 06:01:56;;;;;;;3.93;1.40;;;;;;;;;;5054600;28;20025;-71
2022/03/15 06:04:26;;;;;;;5.63;1.40;;;;;;;;;;5053682;28;20021;-72
2022/03/15 06:06:57;;;;;;;3.83;1.30;;;;;;;;;;5052778;28;20405;-73
2022/03/15 06:09:24;;;;;;;2.13;1.07;;;;;;;;;;5053614;28;20488;-72
2022/03/15 06:11:51;;;;;;;2.50;1.00;;;;;;;;;;5049870;28;20033;-73
2022/03/15 06:14:22;;;;;;;2.67;1.30;;;;;;;;;;5049109;28;20376;-73
2022/03/15 06:16:49;;;;;;;3.63;1.50;;;;;;;;;;5066454;28;20067;-73
2022/03/15 06:19:15;;;;;;;7.20;1.60;;;;;;;;;;5068665;28;20059;-72
2022/03/15 06:21:42;;;;;;;2.40;1.20;;;;;;;;;;5072431;28;20040;-72
2022/03/15 06:24:09;;;;;;;3.13;1.30;;;;;;;;;;5074168;28;20582;-72
2022/03/15 06:26:36;;;;;;;5.13;1.40;;;;;;;;;;5073704;28;20032;-72
2022/03/15 06:29:04;;;;;;;2.53;1.13;;;;;;;;;;5073874;28;20561;-73
2022/03/15 06:31:31;;;;;;;5.30;1.33;;;;;;;;;;5073908;28;20047;-73
2022/03/15 06:33:58;;;;;;;2.97;1.43;;;;;;;;;;5069774;28;20120;-73
2022/03/15 06:36:25;;;;;;;2.30;1.33;;;;;;;;;;5068424;28;20035;-73
2022/03/15 06:38:52;;;;;;;6.70;3.40;;;;;;;;;;5068523;28;20035;-72
2022/03/15 06:41:19;;;;;;;4.27;1.40;;;;;;;;;;5068614;28;20078;-73
2022/03/15 06:43:46;;;;;;;2.60;1.60;;;;;;;;;;5071879;28;20030;-72
2022/03/15 06:46:14;;;;;;;2.53;1.07;;;;;;;;;;5060799;28;20021;-72
2022/03/15 06:48:41;;;;;;;2.53;1.10;;;;;;;;;;5053618;28;20468;-72
2022/03/15 06:51:08;;;;;;;2.30;1.10;;;;;;;;;;5053277;28;20033;-72
2022/03/15 06:53:35;;;;;;;2.60;1.00;;;;;;;;;;5053576;28;20427;-73
2022/03/15 06:56:01;;;;;;;4.63;1.50;;;;;;;;;;5049936;28;20029;-72
2022/03/15 06:58:28;;;;;;;2.37;1.30;;;;;;;;;;5048299;28;20472;-72
2022/03/15 07:00:55;;;;;;;4.90;1.63;;;;;;;;;;5048423;28;20029;-72
2022/03/15 07:03:22;;;;;;;4.87;1.80;;;;;;;;;;5048123;28;20025;-73
2022/03/15 07:05:49;;;;;;;3.73;1.77;;;;;;;;;;5054436;28;20031;-72
2022/03/15 07:08:15;;;;;;;3.40;1.80;;;;;;;;;;5072862;28;20024;-72
2022/03/15 07:10:42;;;;;;;4.90;2.10;;;;;;;;;;5073480;28;20103;-73
2022/03/15 07:13:09;;;;;;;3.50;1.53;;;;;;;;;;5073205;28;20446;-72
2022/03/15 07:15:36;;;;;;;3.67;1.47;;;;;;;;;;5073078;28;20020;-72
2022/03/15 07:18:03;;;;;;;4.37;1.30;;;;;;;;;;5070052;28;20449;-72
2022/03/15 07:20:29;;;;;;;3.43;1.43;;;;;;;;;;5066375;28;20020;-73
2022/03/15 07:22:56;;;;;;;2.70;1.37;;;;;;;;;;5047835;28;20477;-72
2022/03/15 07:25:23;;;;;;;3.87;1.47;;;;;;;;;;5047637;28;20403;-72
2022/03/15 07:27:50;;;;;;;2.80;1.50;;;;;;;;;;5050054;28;20391;-72
2022/03/15 07:30:17;;;;;;;3.77;1.60;;;;;;;;;;5052762;28;20468;-72
2022/03/15 07:32:44;;;;;;;2.53;1.40;;;;;;;;;;5052584;28;20040;-73
2022/03/15 07:35:11;;;;;;;3.47;1.43;;;;;;;;;;5052800;28;20075;-73
2022/03/15 07:37:38;;;;;;;5.00;1.40;;;;;;;;;;5052852;28;20021;-72
2022/03/15 07:40:04;;;;;;;1.60;1.00;;;;;;;;;;5048990;28;20021;-72
2022/03/15 07:42:32;;;;;;;3.20;1.33;;;;;;;;;;5047752;28;20024;-72
2022/03/15 07:45:00;;;;;;;4.43;1.23;;;;;;;;;;5047566;28;20139;-72
2022/03/15 07:47:26;;;;;;;2.87;1.80;;;;;;;;;;5047459;28;20021;-72
2022/03/15 07:49:53;;;;;;;2.27;1.20;;;;;;;;;;5049245;28;20483;-72
2022/03/15 07:52:20;;;;;;;3.90;1.50;;;;;;;;;;5067438;28;20036;-72
2022/03/15 07:54:46;;;;;;;2.97;1.20;;;;;;;;;;5072605;28;20357;-72
2022/03/15 07:57:14;;;;;;;3.00;0.90;;;;;;;;;;5072005;28;20028;-72
2022/03/15 07:59:42;;;;;;;2.33;1.20;;;;;;;;;;5072389;28;20026;-72
2022/03/15 08:02:09;;;;;;;5.37;1.20;;;;;;;;;;5070165;28;20054;-73
2022/03/15 08:04:36;;;;;;;2.87;1.10;;;;;;;;;;5067087;28;20483;-73
2022/03/15 08:07:03;;;;;;;3.90;1.30;;;;;;;;;;5067103;28;20043;-72
2022/03/15 08:09:29;;;;;;;2.90;1.23;;;;;;;;;;5067066;28;20028;-73
2022/03/15 08:11:56;;;;;;;3.07;1.23;;;;;;;;;;5068197;28;20387;-72
2022/03/15 08:14:23;;;;;;;3.73;1.60;;;;;;;;;;5072143;28;20024;-72
2022/03/15 08:16:50;;;;;;;3.33;1.33;;;;;;;;;;5057032;28;20361;-72
2022/03/15 08:19:17;;;;;;;2.53;1.33;;;;;;;;;;5052097;28;20119;-72
2022/03/15 08:21:44;;;;;;;2.03;1.10;;;;;;;;;;5051985;28;20418;-72
2022/03/15 08:24:11;;;;;;;2.03;1.03;;;;;;;;;;5050546;28;20029;-73
2022/03/15 08:26:38;;;;;;;1.43;1.00;;;;;;;;;;5046800;28;20033;-73
2022/03/15 08:29:08;;;;;;;2.90;1.27;;;;;;;;;;5046439;28;20029;-72
2022/03/15 08:31:35;;;;;;;4.37;1.50;;;;;;;;;;5046896;28;20658;-72
2022/03/15 08:34:01;;;;;;;2.47;1.10;;;;;;;;;;5047756;28;20101;-72
2022/03/15 08:36:28;;;;;;;2.80;1.30;;;;;;;;;;5052060;28;20028;-72
2022/03/15 08:38:55;;;;;;;2.13;1.00;;;;;;;;;;5051876;28;20021;-72
2022/03/15 08:41:21;;;;;;;2.37;1.30;;;;;;;;;;5051942;28;20021;-72
2022/03/15 08:43:48;;;;;;;1.97;0.90;;;;;;;;;;5051802;28;20037;-72
2022/03/15 08:46:15;;;;;;;2.73;1.33;;;;;;;;;;5059451;28;20032;-72
2022/03/15 08:48:42;;;;;;;1.43;0.83;;;;;;;;;;5066816;28;20066;-72
2022/03/15 08:51:09;;;;;;;1.83;1.10;;;;;;;;;;5069548;28;20039;-72
2022/03/15 08:53:35;;;;;;;4.47;1.00;;;;;;;;;;5070724;28;20111;-72
2022/03/15 08:56:02;;;;;;;5.03;1.30;;;;;;;;;;5071076;28;20025;-72
2022/03/15 08:58:29;;;;;;;1.80;1.10;;;;;;;;;;5075633;28;20031;-73
2022/03/15 09:00:56;;;;;;;1.73;1.03;;;;;;;;;;5065103;28;20032;-72
2022/03/15 09:03:22;;;;;;;4.03;1.10;;;;;;;;;;5055718;28;20064;-72
2022/03/15 09:05:49;;;;;;;1.97;1.00;;;;;;;;;;5055748;28;20025;-72
2022/03/15 09:08:16;;;;;;;2.70;1.20;;;;;;;;;;5054786;28;20025;-72
2022/03/15 09:10:44;;;;;;;3.30;1.20;;;;;;;;;;5050206;28;20022;-72
2022/03/15 09:13:11;;;;;;;3.13;1.27;;;;;;;;;;5050227;28;20100;-72
2022/03/15 09:15:38;;;;;;;3.23;1.30;;;;;;;;;;5050341;28;20028;-72
2022/03/15 09:18:05;;;;;;;3.03;0.77;;;;;;;;;;5049922;28;20029;-72
2022/03/15 09:20:32;;;;;;;4.43;1.33;;;;;;;;;;5055294;28;20017;-73
2022/03/15 09:22:59;;;;;;;3.13;1.30;;;;;;;;;;5055388;28;20014;-72
2022/03/15 09:25:26;;;;;;;1.80;1.00;;;;;;;;;;5055351;28;20021;-73
2022/03/15 09:27:53;;;;;;;3.47;1.23;;;;;;;;;;5055179;28;20025;-73
2022/03/15 09:30:20;;;;;;;3.07;1.40;;;;;;;;;;5058572;28;20063;-73
2022/03/15 09:32:46;;;;;;;3.93;1.50;;;;;;;;;;5069610;28;20037;-72
2022/03/15 09:35:14;;;;;;;3.43;1.43;;;;;;;;;;5069913;28;20035;-72
2022/03/15 09:37:45;;;;;;;1.87;0.83;;;;;;;;;;5069949;28;20067;-72
2022/03/15 09:40:12;;;;;;;3.10;0.83;;;;;;;;;;5069843;28;20036;-72
2022/03/15 09:42:41;;;;;;;2.37;1.30;;;;;;;;;;5074789;28;20017;-72
2022/03/15 09:45:09;;;;;;;3.27;0.93;;;;;;;;;;5075071;28;20029;-73
2022/03/15 09:47:36;;;;;;;1.97;0.80;;;;;;;;;;5074419;28;20112;-72
2022/03/15 09:50:05;;;;;;;1.30;0.80;;;;;;;;;;5074921;28;20029;-72
2022/03/15 09:52:32;;;;;;;1.50;0.90;;;;;;;;;;5074456;28;20028;-72
2022/03/15 09:54:59;;;;;;;2.90;1.40;;;;;;;;;;5069598;28;20021;-72
2022/03/15 09:57:25;;;;;;;3.33;1.07;;;;;;;;;;5067397;28;20020;-72
2022/03/15 09:59:52;;;;;;;4.73;1.10;;;;;;;;;;5049300;28;20484;-72
2022/03/15 10:02:19;;;;;;;2.30;1.10;;;;;;;;;;5048281;28;20025;-72
2022/03/15 10:04:46;;;;;;;2.47;1.17;;;;;;;;;;5053730;28;20052;-72
2022/03/15 10:07:14;;;;;;;2.30;1.20;;;;;;;;;;5054425;28;20143;-72
2022/03/15 10:09:41;;;;;;;2.93;1.20;;;;;;;;;;5054482;28;20028;-72
2022/03/15 10:12:09;;;;;;;3.33;1.40;;;;;;;;;;5054255;28;20033;-72
2022/03/15 10:14:45;;;;;;;1.23;0.80;;;;;;;;;;5054462;28;20059;-72
2022/03/15 10:17:14;;;;;;;1.40;0.80;;;;;;;;;;5048831;28;20025;-72
2022/03/15 10:19:51;;;;;;;2.73;1.00;;;;;;;;;;5049043;28;20068;-73
2022/03/15 10:22:20;;;;;;;1.90;1.00;;;;;;;;;;5048914;28;20186;-72
2022/03/15 10:24:47;;;;;;;1.57;0.90;;;;;;;;;;5048988;28;20036;-72
2022/03/15 10:27:15;;;;;;;2.07;1.10;;;;;;;;;;5054211;28;20039;-72
2022/03/15 10:29:43;;;;;;;2.77;1.20;;;;;;;;;;5070623;28;20463;-72
2022/03/15 10:32:11;;;;;;;2.93;1.27;;;;;;;;;;5073627;28;20036;-72
2022/03/15 10:34:37;;;;;;;3.37;1.73;;;;;;;;;;5074042;28;20027;-72
2022/03/15 10:37:04;;;;;;;2.47;1.20;;;;;;;;;;5073760;28;20020;-72
2022/03/15 10:39:31;;;;;;;2.03;1.10;;;;;;;;;;5068761;28;20415;-72
2022/03/15 10:42:02;;;;;;;4.13;1.33;;;;;;;;;;5068702;28;20025;-72
2022/03/15 10:44:30;;;;;;;4.07;1.30;;;;;;;;;;5068233;28;20021;-73
2022/03/15 10:47:03;;;;;;;2.27;1.37;;;;;;;;;;5068553;28;20491;-73
2022/03/15 10:49:30;;;;;;;2.37;1.10;;;;;;;;;;5073617;28;20066;-72
2022/03/15 10:51:57;;;;;;;2.77;1.40;;;;;;;;;;5073466;28;20038;-72
2022/03/15 10:54:27;;;;;;;2.77;1.33;;;;;;;;;;5073568;28;20063;-72
2022/03/15 10:56:57;;;;;;;2.67;1.50;;;;;;;;;;5072923;28;20374;-72
2022/03/15 10:59:24;;;;;;;3.43;1.30;;;;;;;;;;5056185;28;20071;-72
2022/03/15 11:01:51;;;;;;;2.33;1.23;;;;;;;;;;5054807;28;20028;-72
2022/03/15 11:04:18;;;;;;;2.70;1.40;;;;;;;;;;5068262;28;20243;-71
2022/03/15 11:06:45;;;;;;;4.27;1.77;;;;;;;;;;5068115;28;20027;-72
2022/03/15 11:09:16;;;;;;;2.90;1.30;;;;;;;;;;5067891;28;20040;-72
2022/03/15 11:11:44;;;;;;;3.83;1.37;;;;;;;;;;5072653;28;20039;-72
2022/03/15 11:14:10;;;;;;;4.37;1.40;;;;;;;;;;5072248;28;20276;-72
2022/03/15 11:16:39;;;;;;;2.83;1.33;;;;;;;;;;5067718;28;20378;-72
2022/03/15 11:19:06;;;;;;;3.57;1.40;;;;;;;;;;5053068;28;20089;-72
2022/03/15 11:21:33;;;;;;;1.67;0.97;;;;;;;;;;5052875;28;20022;-72
2022/03/15 11:24:01;;;;;;;2.10;1.10;;;;;;;;;;5048029;28;20242;-72
2022/03/15 11:26:33;;;;;;;4.10;1.20;;;;;;;;;;5047399;28;20021;-72
2022/03/15 11:29:00;;;;;;;2.13;1.10;;;;;;;;;;5047620;28;20129;-72
2022/03/15 11:31:26;;;;;;;2.37;1.40;;;;;;;;;;5047488;28;20780;-72
2022/03/15 11:33:55;;;;;;;2.87;1.40;;;;;;;;;;5052740;28;20255;-72
2022/03/15 11:36:24;;;;;;;4.60;1.90;;;;;;;;;;5052756;28;20100;-72
2022/03/15 11:38:51;;;;;;;5.13;1.47;;;;;;;;;;5052654;28;20114;-73
2022/03/15 11:41:20;;;;;;;3.27;1.50;;;;;;;;;;5052440;28;20246;-73
2022/03/15 11:44:06;;;;;;;1.60;1.10;;;;;;;;;;5052361;28;20602;-72
2022/03/15 11:46:43;;;;;;;2.50;1.30;;;;;;;;;;5050063;28;21032;-72
2022/03/15 11:49:28;;;;;;;3.07;1.40;;;;;;;;;;5066496;28;20352;-72
2022/03/15 11:52:05;;;;;;;1.95;1.10;;;;;;;;;;5067346;28;20281;-72
2022/03/15 11:54:44;;;;;;;2.70;1.40;;;;;;;;;;5068996;28;20095;-72
2022/03/15 11:57:30;;;;;;;2.53;1.23;;;;;;;;;;5072216;28;20257;-72
2022/03/15 11:59:57;;;;;;;3.40;1.50;;;;;;;;;;5072448;28;20649;-72
2022/03/15 12:02:34;;;;;;;3.50;1.60;;;;;;;;;;5072418;28;20329;-72
2022/03/15 12:05:17;;;;;;;6.67;2.30;;;;;;;;;;5072160;28;20258;-72
2022/03/15 12:07:46;;;;;;;5.33;2.47;;;;;;;;;;5068461;28;20289;-72
2022/03/15 12:10:23;;;;;;;4.63;2.00;;;;;;;;;;5067111;28;20805;-72
2022/03/15 12:12:59;;;;;;;3.40;1.90;;;;;;;;;;5067360;28;20293;-72
2022/03/15 12:15:34;;;;;;;3.53;1.60;;;;;;;;;;5067008;28;20307;-72
2022/03/15 12:21:05;;;;;;;9.30;2.43;;;;;;;;;;5060499;28;20044;-72
2022/03/15 12:23:48;;;;;;;6.43;2.10;;;;;;;;;;5072240;28;20334;-72
2022/03/15 12:26:19;;;;;;;5.73;2.23;;;;;;;;;;5071735;28;20327;-72
2022/03/15 12:29:12;;;;;;;6.10;2.10;;;;;;;;;;5070891;28;20331;-72
2022/03/15 12:31:40;;;;;;;9.83;2.63;;;;;;;;;;5066647;28;20351;-72
2022/03/15 12:34:09;;;;;;;7.60;3.00;;;;;;;;;;5066804;28;20257;-72
2022/03/15 12:36:39;;;;;;;7.40;3.17;;;;;;;;;;5066846;28;20274;-72
2022/03/15 12:39:10;;;;;;;7.43;3.47;;;;;;;;;;5068373;28;20253;-72
2022/03/15 12:41:36;;;;;;;7.13;3.00;;;;;;;;;;5072126;28;20312;-72
2022/03/15 12:44:03;;;;;;;10.13;3.60;;;;;;;;;;5072056;28;20748;-72
2022/03/15 12:46:30;;;;;;;7.20;4.10;;;;;;;;;;5066362;28;20269;-72
2022/03/15 12:49:05;;;;;;;13.83;5.20;;;;;;;;;;5051918;28;20269;-72
2022/03/15 12:51:42;;;;;;;11.63;4.30;;;;;;;;;;5049483;28;20636;-72
2022/03/15 12:54:11;;;;;;;8.60;3.63;;;;;;;;;;5046466;28;20480;-72
2022/03/15 12:56:42;;;;;;;8.63;4.37;;;;;;;;;;5046558;28;20806;-72
2022/03/15 12:59:16;;;;;;;5.70;2.70;;;;;;;;;;5046723;28;20751;-72
2022/03/15 13:01:47;;;;;;;5.55;2.45;;;;;;;;;;5049234;28;20579;-72
2022/03/15 13:04:14;;;;;;;9.37;3.60;;;;;;;;;;5051466;28;20086;-72
2022/03/15 13:06:44;;;;;;;11.40;4.07;;;;;;;;;;5070423;28;20270;-72
2022/03/15 13:09:11;;;;;;;9.53;3.60;;;;;;;;;;5071839;28;20249;-71
2022/03/15 13:11:45;;;;;;;6.17;3.40;;;;;;;;;;5071409;28;20292;-71
2022/03/15 13:14:12;;;;;;;6.00;2.80;;;;;;;;;;5068418;28;20341;-72
2022/03/15 13:16:46;;;;;;;6.50;2.60;;;;;;;;;;5066272;28;20257;-72
2022/03/15 13:19:14;;;;;;;7.17;3.00;;;;;;;;;;5066258;28;20281;-72
2022/03/15 13:21:40;;;;;;;8.20;3.47;;;;;;;;;;5066459;28;20940;-72
2022/03/15 13:24:10;;;;;;;8.13;3.63;;;;;;;;;;5069224;28;20310;-72
2022/03/15 13:26:40;;;;;;;10.30;3.40;;;;;;;;;;5071578;28;20794;-72
2022/03/15 13:29:08;;;;;;;9.07;3.00;;;;;;;;;;5070894;28;20635;-72
2022/03/15 13:31:38;;;;;;;8.87;2.90;;;;;;;;;;5059030;28;20297;-72
2022/03/15 13:34:05;;;;;;;14.00;3.17;;;;;;;;;;5051708;28;20331;-72
2022/03/15 13:36:34;;;;;;;9.73;2.27;;;;;;;;;;5048216;28;20319;-72
2022/03/15 13:39:05;;;;;;;4.97;2.23;;;;;;;;;;5049886;28;20392;-72
2022/03/15 13:41:42;;;;;;;2.90;1.50;;;;;;;;;;5049579;28;20078;-72
2022/03/15 13:44:14;;;;;;;10.23;1.80;;;;;;;;;;5049683;28;20027;-72
2022/03/15 13:46:41;;;;;;;5.17;1.97;;;;;;;;;;5053131;28;20025;-73
2022/03/15 13:49:16;;;;;;;8.73;1.93;;;;;;;;;;5054788;28;20108;-73
2022/03/15 13:51:42;;;;;;;5.97;2.58;;;;;;;;;;5054822;28;20562;-73
2022/03/15 13:54:13;;;;;;;11.40;4.03;;;;;;;;;;5054185;28;20026;-73
2022/03/15 13:56:53;;;;;;;15.50;3.90;;;;;;;;;;5054725;28;20083;-73
2022/03/15 13:59:22;;;;;;;22.03;6.33;;;;;;;;;;5049595;28;20017;-73
2022/03/15 14:02:06;;;;;;;20.63;7.23;;;;;;;;;;5062885;28;20082;-73
2022/03/15 14:04:34;;;;;;;24.23;7.38;;;;;;;;;;5069385;28;20028;-74
2022/03/15 14:07:02;;;;;;;17.47;8.03;;;;;;;;;;5069248;28;20379;-73
2022/03/15 14:09:30;;;;;;;24.17;8.60;;;;;;;;;;5074163;28;20056;-73
2022/03/15 14:12:08;;;;;;;29.07;10.10;;;;;;;;;;5074469;28;20074;-73
2022/03/15 14:14:39;;;;;;;23.90;8.07;;;;;;;;;;5073931;28;20123;-73
2022/03/15 14:17:06;;;;;;;13.70;7.07;;;;;;;;;;5074518;28;20425;-73
2022/03/15 14:19:43;;;;;;;10.47;5.80;;;;;;;;;;5073375;28;20082;-73
2022/03/15 14:22:09;;;;;;;11.20;4.60;;;;;;;;;;5069077;28;20205;-73
2022/03/15 14:24:40;;;;;;;12.67;4.27;;;;;;;;;;5069104;28;20471;-73
2022/03/15 14:27:07;;;;;;;9.87;4.83;;;;;;;;;;5068573;28;20111;-73
2022/03/15 14:29:36;;;;;;;13.90;5.13;;;;;;;;;;5069336;28;20134;-72
2022/03/15 14:32:07;;;;;;;14.87;6.27;;;;;;;;;;5071896;28;20044;-73
2022/03/15 14:34:41;;;;;;;15.80;5.97;;;;;;;;;;5073250;28;20487;-73
2022/03/15 14:37:09;;;;;;;17.27;7.47;;;;;;;;;;5073728;28;20112;-72
2022/03/15 14:39:38;;;;;;;15.03;7.20;;;;;;;;;;5073010;28;20103;-73
2022/03/15 14:42:05;;;;;;;15.33;7.13;;;;;;;;;;5072571;28;20048;-73
2022/03/15 14:44:35;;;;;;;15.93;5.97;;;;;;;;;;5068528;28;20452;-73
2022/03/15 14:47:13;;;;;;;12.93;6.73;;;;;;;;;;5068594;28;20038;-73
2022/03/15 14:49:41;;;;;;;13.40;5.53;;;;;;;;;;5068124;28;20029;-73
2022/03/15 14:52:09;;;;;;;16.27;4.80;;;;;;;;;;5069336;28;20035;-73